sensor_id;sensor_type;location;lat;lon;timestamp;pressure;altitude;pressure_sealevel;temperature;humidity
56721;BME280;53183;47.412;18.884;2022-12-08T00:01:21;99184.25;;;-0.04;100.00
56721;BME280;53183;47.412;18.884;2022-12-08T00:03:49;99186.84;;;-0.04;100.00
56721;BME280;53183;47.412;18.884;2022-12-08T00:06:27;99190.34;;;-0.05;100.00
56721;BME280;53183;47.412;18.884;2022-12-08T00:11:58;99181.66;;;-0.04;100.00
56721;BME280;53183;47.412;18.884;2022-12-08T00:14:39;99187.59;;;0.04;100.00
56721;BME280;53183;47.412;18.884;2022-12-08T00:17:08;99172.06;;;0.01;100.00
56721;BME280;53183;47.412;18.884;2022-12-08T00:19:37;99172.06;;;0.01;100.00
56721;BME280;53183;47.412;18.884;2022-12-08T00:22:06;99179.00;;;0.01;100.00
56721;BME280;53183;47.412;18.884;2022-12-08T00:24:35;99181.66;;;-0.04;100.00
56721;BME280;53183;47.412;18.884;2022-12-08T00:27:06;99177.34;;;-0.05;100.00
56721;BME280;53183;47.412;18.884;2022-12-08T00:29:34;99171.31;;;-0.06;100.00
56721;BME280;53183;47.412;18.884;2022-12-08T00:32:01;99177.31;;;-0.02;100.00
56721;BME280;53183;47.412;18.884;2022-12-08T00:34:29;99177.34;;;-0.07;100.00
56721;BME280;53183;47.412;18.884;2022-12-08T00:36:56;99182.50;;;-0.04;100.00
56721;BME280;53183;47.412;18.884;2022-12-08T00:39:23;99188.62;;;-0.06;100.00
56721;BME280;53183;47.412;18.884;2022-12-08T00:41:51;99196.41;;;-0.06;100.00
56721;BME280;53183;47.412;18.884;2022-12-08T00:44:38;99192.81;;;0.03;100.00
56721;BME280;53183;47.412;18.884;2022-12-08T00:47:05;99190.19;;;0.04;100.00
56721;BME280;53183;47.412;18.884;2022-12-08T00:49:32;99189.41;;;-0.01;100.00
56721;BME280;53183;47.412;18.884;2022-12-08T00:51:59;99178.19;;;-0.05;100.00
56721;BME280;53183;47.412;18.884;2022-12-08T00:54:27;99181.66;;;-0.04;100.00
56721;BME280;53183;47.412;18.884;2022-12-08T00:56:54;99184.28;;;-0.07;100.00
56721;BME280;53183;47.412;18.884;2022-12-08T00:59:21;99186.94;;;-0.10;100.00
56721;BME280;53183;47.412;18.884;2022-12-08T01:01:48;99183.56;;;-0.15;100.00
56721;BME280;53183;47.412;18.884;2022-12-08T01:04:17;99189.66;;;-0.18;100.00
56721;BME280;53183;47.412;18.884;2022-12-08T01:06:45;99187.97;;;-0.20;100.00
56721;BME280;53183;47.412;18.884;2022-12-08T01:09:13;99181.16;;;-0.26;100.00
56721;BME280;53183;47.412;18.884;2022-12-08T01:11:40;99183.75;;;-0.28;100.00
56721;BME280;53183;47.412;18.884;2022-12-08T01:14:07;99182.91;;;-0.28;100.00
56721;BME280;53183;47.412;18.884;2022-12-08T01:16:35;99188.06;;;-0.27;100.00
56721;BME280;53183;47.412;18.884;2022-12-08T01:19:03;99187.22;;;-0.29;100.00
56721;BME280;53183;47.412;18.884;2022-12-08T01:21:30;99183.03;;;-0.36;100.00
56721;BME280;53183;47.412;18.884;2022-12-08T01:24:00;99177.91;;;-0.43;100.00
56721;BME280;53183;47.412;18.884;2022-12-08T01:26:28;99178.84;;;-0.46;100.00
56721;BME280;53183;47.412;18.884;2022-12-08T01:28:55;99179.75;;;-0.49;100.00
56721;BME280;53183;47.412;18.884;2022-12-08T01:31:23;99184.13;;;-0.54;100.00
56721;BME280;53183;47.412;18.884;2022-12-08T01:33:50;99174.66;;;-0.58;100.00
56721;BME280;53183;47.412;18.884;2022-12-08T01:36:25;99186.06;;;-0.68;100.00
56721;BME280;53183;47.412;18.884;2022-12-08T01:38:55;99177.47;;;-0.73;100.00
56721;BME280;53183;47.412;18.884;2022-12-08T01:41:29;99173.13;;;-0.73;100.00
56721;BME280;53183;47.412;18.884;2022-12-08T01:44:01;99168.03;;;-0.80;100.00
56721;BME280;53183;47.412;18.884;2022-12-08T01:46:31;99173.22;;;-0.80;100.00
56721;BME280;53183;47.412;18.884;2022-12-08T01:49:12;99172.47;;;-0.85;100.00
56721;BME280;53183;47.412;18.884;2022-12-08T01:51:45;99165.59;;;-0.92;100.00
56721;BME280;53183;47.412;18.884;2022-12-08T01:54:15;99162.22;;;-0.99;100.00
56721;BME280;53183;47.412;18.884;2022-12-08T01:57:09;99160.53;;;-1.00;100.00
56721;BME280;53183;47.412;18.884;2022-12-08T01:59:40;99166.53;;;-0.95;100.00
56721;BME280;53183;47.412;18.884;2022-12-08T02:02:11;99168.38;;;-1.06;100.00
56721;BME280;53183;47.412;18.884;2022-12-08T02:04:38;99164.03;;;-1.06;100.00
56721;BME280;53183;47.412;18.884;2022-12-08T02:07:07;99163.91;;;-0.93;100.00
56721;BME280;53183;47.412;18.884;2022-12-08T02:09:36;99156.25;;;-1.04;100.00
56721;BME280;53183;47.412;18.884;2022-12-08T02:12:04;99156.38;;;-1.13;100.00
56721;BME280;53183;47.412;18.884;2022-12-08T02:14:33;99149.50;;;-1.19;100.00
56721;BME280;53183;47.412;18.884;2022-12-08T02:20:26;99153.91;;;-1.24;100.00
56721;BME280;53183;47.412;18.884;2022-12-08T02:25:45;99152.88;;;-1.11;100.00
56721;BME280;53183;47.412;18.884;2022-12-08T02:39:21;99145.75;;;-0.33;100.00
56721;BME280;53183;47.412;18.884;2022-12-08T02:44:46;99135.97;;;-0.17;100.00
56721;BME280;53183;47.412;18.884;2022-12-08T02:47:17;99139.44;;;-0.17;100.00
56721;BME280;53183;47.412;18.884;2022-12-08T02:49:45;99137.81;;;-0.24;100.00
56721;BME280;53183;47.412;18.884;2022-12-08T02:54:42;99139.66;;;-0.29;100.00
56721;BME280;53183;47.412;18.884;2022-12-08T03:00:10;99136.84;;;-0.17;100.00
56721;BME280;53183;47.412;18.884;2022-12-08T03:08:26;99127.34;;;-0.16;100.00
56721;BME280;53183;47.412;18.884;2022-12-08T03:11:03;99132.41;;;-0.10;100.00
56721;BME280;53183;47.412;18.884;2022-12-08T03:13:44;99134.00;;;-0.02;100.00
56721;BME280;53183;47.412;18.884;2022-12-08T03:16:15;99130.44;;;0.04;100.00
56721;BME280;53183;47.412;18.884;2022-12-08T03:18:47;99130.44;;;0.04;100.00
56721;BME280;53183;47.412;18.884;2022-12-08T03:21:18;99113.09;;;0.05;100.00
56721;BME280;53183;47.412;18.884;2022-12-08T03:23:49;99124.22;;;0.13;100.00
56721;BME280;53183;47.412;18.884;2022-12-08T03:26:24;99121.56;;;0.17;100.00
56721;BME280;53183;47.412;18.884;2022-12-08T03:28:55;99119.75;;;0.19;100.00
56721;BME280;53183;47.412;18.884;2022-12-08T03:31:25;99121.56;;;0.17;100.00
56721;BME280;53183;47.412;18.884;2022-12-08T03:33:55;99120.66;;;0.20;100.00
56721;BME280;53183;47.412;18.884;2022-12-08T03:36:24;99119.06;;;0.10;100.00
56721;BME280;53183;47.412;18.884;2022-12-08T03:38:53;99120.00;;;0.07;100.00
56721;BME280;53183;47.412;18.884;2022-12-08T03:41:23;99114.75;;;0.10;100.00
56721;BME280;53183;47.412;18.884;2022-12-08T03:43:56;99113.88;;;0.10;100.00
56721;BME280;53183;47.412;18.884;2022-12-08T03:46:27;99111.22;;;0.14;100.00
56721;BME280;53183;47.412;18.884;2022-12-08T03:48:54;99112.13;;;0.12;100.00
56721;BME280;53183;47.412;18.884;2022-12-08T03:51:21;99117.25;;;0.15;100.00
56721;BME280;53183;47.412;18.884;2022-12-08T03:53:49;99112.03;;;0.16;100.00
56721;BME280;53183;47.412;18.884;2022-12-08T03:56:24;99103.31;;;0.19;100.00
56721;BME280;53183;47.412;18.884;2022-12-08T03:58:52;99102.47;;;0.18;100.00
56721;BME280;53183;47.412;18.884;2022-12-08T04:01:21;99104.91;;;0.26;100.00
56721;BME280;53183;47.412;18.884;2022-12-08T04:03:48;99100.47;;;0.33;100.00
56721;BME280;53183;47.412;18.884;2022-12-08T04:06:16;99095.25;;;0.33;100.00
56721;BME280;53183;47.412;18.884;2022-12-08T04:08:44;99099.34;;;0.47;100.00
56721;BME280;53183;47.412;18.884;2022-12-08T04:11:11;99098.25;;;0.59;100.00
56721;BME280;53183;47.412;18.884;2022-12-08T04:13:39;99090.56;;;0.52;100.00
56721;BME280;53183;47.412;18.884;2022-12-08T04:16:07;99093.28;;;0.45;100.00
56721;BME280;53183;47.412;18.884;2022-12-08T04:18:35;99089.78;;;0.48;100.00
56721;BME280;53183;47.412;18.884;2022-12-08T04:21:02;99086.28;;;0.49;100.00
56721;BME280;53183;47.412;18.884;2022-12-08T04:23:29;99089.69;;;0.53;100.00
56721;BME280;53183;47.412;18.884;2022-12-08T04:25:56;99093.09;;;0.56;100.00
56721;BME280;53183;47.412;18.884;2022-12-08T04:28:23;99079.22;;;0.57;100.00
56721;BME280;53183;47.412;18.884;2022-12-08T04:30:50;99081.75;;;0.59;100.00
56721;BME280;53183;47.412;18.884;2022-12-08T04:33:17;99090.41;;;0.61;100.00
56721;BME280;53183;47.412;18.884;2022-12-08T04:35:45;99084.22;;;0.66;100.00
56721;BME280;53183;47.412;18.884;2022-12-08T04:38:12;99090.28;;;0.67;100.00
56721;BME280;53183;47.412;18.884;2022-12-08T04:40:40;99089.38;;;0.69;100.00
56721;BME280;53183;47.412;18.884;2022-12-08T04:43:07;99091.03;;;0.74;100.00
56721;BME280;53183;47.412;18.884;2022-12-08T04:45:34;99092.78;;;0.72;100.00
56721;BME280;53183;47.412;18.884;2022-12-08T04:48:03;99090.97;;;0.75;100.00
56721;BME280;53183;47.412;18.884;2022-12-08T04:50:30;99084.13;;;0.73;100.00
56721;BME280;53183;47.412;18.884;2022-12-08T04:52:57;99085.75;;;0.77;100.00
56721;BME280;53183;47.412;18.884;2022-12-08T04:55:24;99087.47;;;0.78;100.00
56721;BME280;53183;47.412;18.884;2022-12-08T04:57:51;99079.63;;;0.79;100.00
56721;BME280;53183;47.412;18.884;2022-12-08T05:00:18;99083.97;;;0.79;100.00
56721;BME280;53183;47.412;18.884;2022-12-08T05:02:46;99089.22;;;0.76;100.00
56721;BME280;53183;47.412;18.884;2022-12-08T05:05:13;99081.47;;;0.74;100.00
56721;BME280;53183;47.412;18.884;2022-12-08T05:07:40;99090.03;;;0.79;100.00
56721;BME280;53183;47.412;18.884;2022-12-08T05:10:08;99096.88;;;0.83;100.00
56721;BME280;53183;47.412;18.884;2022-12-08T05:12:35;99087.41;;;0.81;100.00
56721;BME280;53183;47.412;18.884;2022-12-08T05:15:02;99087.34;;;0.82;100.00
56721;BME280;53183;47.412;18.884;2022-12-08T05:17:30;99089.09;;;0.82;100.00
56721;BME280;53183;47.412;18.884;2022-12-08T05:19:57;99088.25;;;0.81;100.00
56721;BME280;53183;47.412;18.884;2022-12-08T05:22:24;99077.88;;;0.80;100.00
56721;BME280;53183;47.412;18.884;2022-12-08T05:24:51;99089.09;;;0.82;100.00
56721;BME280;53183;47.412;18.884;2022-12-08T05:27:18;99082.19;;;0.81;100.00
56721;BME280;53183;47.412;18.884;2022-12-08T05:29:45;99074.31;;;0.84;100.00
56721;BME280;53183;47.412;18.884;2022-12-08T05:32:14;99065.41;;;0.96;100.00
56721;BME280;53183;47.412;18.884;2022-12-08T05:34:41;99061.94;;;0.95;100.00
56721;BME280;53183;47.412;18.884;2022-12-08T05:37:08;99067.97;;;0.97;100.00
56721;BME280;53183;47.412;18.884;2022-12-08T05:39:35;99067.91;;;1.00;100.00
56721;BME280;53183;47.412;18.884;2022-12-08T05:42:03;99074.75;;;1.04;100.00
56721;BME280;53183;47.412;18.884;2022-12-08T05:44:30;99075.31;;;1.19;100.00
56721;BME280;53183;47.412;18.884;2022-12-08T05:46:57;99074.66;;;1.09;100.00
56721;BME280;53183;47.412;18.884;2022-12-08T05:49:24;99070.44;;;1.03;100.00
56721;BME280;53183;47.412;18.884;2022-12-08T05:51:51;99071.25;;;1.05;100.00
56721;BME280;53183;47.412;18.884;2022-12-08T05:54:19;99075.47;;;1.11;100.00
56721;BME280;53183;47.412;18.884;2022-12-08T05:56:46;99077.28;;;1.09;100.00
56721;BME280;53183;47.412;18.884;2022-12-08T05:59:13;99078.97;;;1.10;100.00
56721;BME280;53183;47.412;18.884;2022-12-08T06:01:40;99076.31;;;1.11;100.00
56721;BME280;53183;47.412;18.884;2022-12-08T06:04:08;99068.44;;;1.14;100.00
56721;BME280;53183;47.412;18.884;2022-12-08T06:06:36;99077.91;;;1.19;100.00
56721;BME280;53183;47.412;18.884;2022-12-08T06:09:05;99078.00;;;1.15;100.00
56721;BME280;53183;47.412;18.884;2022-12-08T06:11:32;99081.00;;;1.36;100.00
56721;BME280;53183;47.412;18.884;2022-12-08T06:13:59;99076.88;;;1.26;100.00
56721;BME280;53183;47.412;18.884;2022-12-08T06:16:27;99072.47;;;1.29;100.00
56721;BME280;53183;47.412;18.884;2022-12-08T06:18:55;99073.38;;;1.27;100.00
56721;BME280;53183;47.412;18.884;2022-12-08T06:21:23;99081.84;;;1.35;100.00
56721;BME280;53183;47.412;18.884;2022-12-08T06:23:52;99086.41;;;1.27;100.00
56721;BME280;53183;47.412;18.884;2022-12-08T06:26:20;99080.34;;;1.25;100.00
56721;BME280;53183;47.412;18.884;2022-12-08T06:28:48;99081.97;;;1.32;100.00
56721;BME280;53183;47.412;18.884;2022-12-08T06:31:18;99082.75;;;1.35;100.00
56721;BME280;53183;47.412;18.884;2022-12-08T06:33:46;99086.13;;;1.39;100.00
56721;BME280;53183;47.412;18.884;2022-12-08T06:36:14;99082.66;;;1.38;100.00
56721;BME280;53183;47.412;18.884;2022-12-08T06:38:42;99090.38;;;1.43;100.00
56721;BME280;53183;47.412;18.884;2022-12-08T06:41:11;99092.06;;;1.46;100.00
56721;BME280;53183;47.412;18.884;2022-12-08T06:43:39;99085.59;;;1.60;100.00
56721;BME280;53183;47.412;18.884;2022-12-08T06:46:09;99089.00;;;1.64;100.00
56721;BME280;53183;47.412;18.884;2022-12-08T06:48:36;99095.75;;;1.73;100.00
56721;BME280;53183;47.412;18.884;2022-12-08T06:51:11;99090.31;;;1.82;100.00
56721;BME280;53183;47.412;18.884;2022-12-08T06:53:39;99091.34;;;1.75;100.00
56721;BME280;53183;47.412;18.884;2022-12-08T06:56:07;99090.31;;;1.82;100.00
56721;BME280;53183;47.412;18.884;2022-12-08T06:58:35;99089.47;;;1.81;100.00
56721;BME280;53183;47.412;18.884;2022-12-08T07:01:04;99086.87;;;1.80;100.00
56721;BME280;53183;47.412;18.884;2022-12-08T07:03:32;99091.88;;;1.89;100.00
56721;BME280;53183;47.412;18.884;2022-12-08T07:05:59;99089.09;;;1.95;100.00
56721;BME280;53183;47.412;18.884;2022-12-08T07:08:32;99095.03;;;2.00;100.00
56721;BME280;53183;47.412;18.884;2022-12-08T07:11:06;99100.09;;;2.06;100.00
56721;BME280;53183;47.412;18.884;2022-12-08T07:13:34;99105.22;;;2.11;100.00
56721;BME280;53183;47.412;18.884;2022-12-08T07:16:06;99105.38;;;2.05;100.00
56721;BME280;53183;47.412;18.884;2022-12-08T07:18:34;99108.69;;;2.10;100.00
56721;BME280;53183;47.412;18.884;2022-12-08T07:21:04;99100.00;;;2.11;100.00
56721;BME280;53183;47.412;18.884;2022-12-08T07:23:32;99098.16;;;2.15;100.00
56721;BME280;53183;47.412;18.884;2022-12-08T07:26:01;99099.19;;;2.09;100.00
56721;BME280;53183;47.412;18.884;2022-12-08T07:28:32;99095.59;;;2.13;100.00
56721;BME280;53183;47.412;18.884;2022-12-08T07:31:01;99091.91;;;2.20;100.00
56721;BME280;53183;47.412;18.884;2022-12-08T07:33:28;99095.13;;;2.31;100.00
56721;BME280;53183;47.412;18.884;2022-12-08T07:35:56;99095.75;;;2.40;100.00
56721;BME280;53183;47.412;18.884;2022-12-08T07:38:25;99089.66;;;2.41;100.00
56721;BME280;53183;47.412;18.884;2022-12-08T07:40:53;99085.97;;;2.48;100.00
56721;BME280;53183;47.412;18.884;2022-12-08T07:43:21;99086.03;;;2.76;100.00
56721;BME280;53183;47.412;18.884;2022-12-08T07:45:49;99085.94;;;2.80;100.00
56721;BME280;53183;47.412;18.884;2022-12-08T07:48:16;99082.38;;;2.83;100.00
56721;BME280;53183;47.412;18.884;2022-12-08T07:50:44;99089.31;;;2.84;100.00
56721;BME280;53183;47.412;18.884;2022-12-08T07:53:13;99094.28;;;2.92;99.68
56721;BME280;53183;47.412;18.884;2022-12-08T07:55:41;99090.56;;;3.00;99.48
56721;BME280;53183;47.412;18.884;2022-12-08T07:58:09;99097.16;;;3.12;99.19
56721;BME280;53183;47.412;18.884;2022-12-08T08:00:37;99089.13;;;3.20;98.30
56721;BME280;53183;47.412;18.884;2022-12-08T08:03:04;99094.28;;;3.21;98.35
56721;BME280;53183;47.412;18.884;2022-12-08T08:05:32;99088.94;;;3.26;98.46
56721;BME280;53183;47.412;18.884;2022-12-08T08:07:59;99092.88;;;3.39;96.74
56721;BME280;53183;47.412;18.884;2022-12-08T08:10:26;99092.91;;;3.38;96.77
56721;BME280;53183;47.412;18.884;2022-12-08T08:12:53;99094.69;;;3.37;97.37
56721;BME280;53183;47.412;18.884;2022-12-08T08:15:24;99093.56;;;3.46;97.23
56721;BME280;53183;47.412;18.884;2022-12-08T08:17:52;99088.91;;;3.54;96.16
56721;BME280;53183;47.412;18.884;2022-12-08T08:20:20;99075.94;;;3.52;95.93
56721;BME280;53183;47.412;18.884;2022-12-08T08:22:49;99080.13;;;3.57;95.65
56721;BME280;53183;47.412;18.884;2022-12-08T08:25:17;99075.38;;;3.69;93.92
56721;BME280;53183;47.412;18.884;2022-12-08T08:27:45;99079.44;;;3.78;94.01
56721;BME280;53183;47.412;18.884;2022-12-08T08:30:13;99069.88;;;3.77;93.87
56721;BME280;53183;47.412;18.884;2022-12-08T08:32:47;99077.63;;;3.80;93.61
56721;BME280;53183;47.412;18.884;2022-12-08T08:35:15;99074.66;;;3.91;92.61
56721;BME280;53183;47.412;18.884;2022-12-08T08:37:42;99074.53;;;3.95;93.07
56721;BME280;53183;47.412;18.884;2022-12-08T08:40:16;99070.81;;;4.01;91.55
56721;BME280;53183;47.412;18.884;2022-12-08T08:42:44;99081.34;;;3.99;92.12
56721;BME280;53183;47.412;18.884;2022-12-08T08:45:11;99078.47;;;4.07;90.69
56721;BME280;53183;47.412;18.884;2022-12-08T08:47:38;99070.38;;;4.15;91.50
56721;BME280;53183;47.412;18.884;2022-12-08T08:50:06;99064.34;;;4.13;91.62
56721;BME280;53183;47.412;18.884;2022-12-08T08:52:33;99069.16;;;4.25;90.66
56721;BME280;53183;47.412;18.884;2022-12-08T08:55:01;99070.69;;;4.31;89.95
56721;BME280;53183;47.412;18.884;2022-12-08T08:57:28;99065.69;;;4.25;89.53
56721;BME280;53183;47.412;18.884;2022-12-08T08:59:55;99074.59;;;4.19;87.84
56721;BME280;53183;47.412;18.884;2022-12-08T09:02:22;99079.66;;;4.23;86.84
56721;BME280;53183;47.412;18.884;2022-12-08T09:04:49;99075.22;;;4.26;87.25
56721;BME280;53183;47.412;18.884;2022-12-08T09:07:16;99066.53;;;4.25;86.87
56721;BME280;53183;47.412;18.884;2022-12-08T09:09:44;99059.75;;;4.19;87.07
56721;BME280;53183;47.412;18.884;2022-12-08T09:12:11;99064.88;;;4.22;86.78
56721;BME280;53183;47.412;18.884;2022-12-08T09:14:39;99063.47;;;4.37;83.85
56721;BME280;53183;47.412;18.884;2022-12-08T09:17:07;99064.50;;;4.33;83.93
56721;BME280;53183;47.412;18.884;2022-12-08T09:19:34;99079.13;;;4.39;83.94
56721;BME280;53183;47.412;18.884;2022-12-08T09:22:01;99084.19;;;4.43;82.11
56721;BME280;53183;47.412;18.884;2022-12-08T09:24:30;99073.19;;;4.34;83.58
56721;BME280;53183;47.412;18.884;2022-12-08T09:26:57;99077.47;;;4.36;82.19
56721;BME280;53183;47.412;18.884;2022-12-08T09:29:24;99081.00;;;4.35;82.47
56721;BME280;53183;47.412;18.884;2022-12-08T09:31:54;99062.72;;;4.34;83.06
56721;BME280;53183;47.412;18.884;2022-12-08T09:34:23;99052.38;;;4.31;82.33
56721;BME280;53183;47.412;18.884;2022-12-08T09:36:50;99041.06;;;4.30;82.93
56721;BME280;53183;47.412;18.884;2022-12-08T09:39:17;99032.19;;;4.34;82.98
56721;BME280;53183;47.412;18.884;2022-12-08T09:41:48;99029.53;;;4.36;81.84
56721;BME280;53183;47.412;18.884;2022-12-08T09:47:16;99044.94;;;4.67;80.57
56721;BME280;53183;47.412;18.884;2022-12-08T09:49:50;99042.19;;;4.72;80.48
56721;BME280;53183;47.412;18.884;2022-12-08T09:52:39;99037.72;;;4.74;80.32
56721;BME280;53183;47.412;18.884;2022-12-08T09:55:16;99029.12;;;4.70;80.05
56721;BME280;53183;47.412;18.884;2022-12-08T09:57:54;99020.66;;;4.63;80.62
56721;BME280;53183;47.412;18.884;2022-12-08T10:00:23;99031.63;;;4.73;78.23
56721;BME280;53183;47.412;18.884;2022-12-08T10:02:51;99032.47;;;4.74;78.43
56721;BME280;53183;47.412;18.884;2022-12-08T10:05:18;99024.63;;;4.74;78.41
56721;BME280;53183;47.412;18.884;2022-12-08T10:07:53;99033.09;;;4.80;78.60
56721;BME280;53183;47.412;18.884;2022-12-08T10:10:40;99031.63;;;4.73;77.76
56721;BME280;53183;47.412;18.884;2022-12-08T10:13:39;99029.31;;;4.65;79.32
56721;BME280;53183;47.412;18.884;2022-12-08T10:16:16;99031.94;;;4.65;78.73
56721;BME280;53183;47.412;18.884;2022-12-08T10:21:46;99016.13;;;4.68;79.78
56721;BME280;53183;47.412;18.884;2022-12-08T10:24:32;99013.50;;;4.68;81.00
56721;BME280;53183;47.412;18.884;2022-12-08T10:27:01;99006.09;;;4.80;80.18
56721;BME280;53183;47.412;18.884;2022-12-08T10:29:28;99012.00;;;4.85;79.67
56721;BME280;53183;47.412;18.884;2022-12-08T10:31:57;99001.06;;;4.97;78.32
56721;BME280;53183;47.412;18.884;2022-12-08T10:34:26;98988.72;;;5.01;77.22
56721;BME280;53183;47.412;18.884;2022-12-08T10:36:57;98994.19;;;4.94;77.86
56721;BME280;53183;47.412;18.884;2022-12-08T10:39:40;98991.78;;;4.88;77.76
56721;BME280;53183;47.412;18.884;2022-12-08T10:44:59;98969.31;;;4.83;78.76
56721;BME280;53183;47.412;18.884;2022-12-08T10:47:28;98964.19;;;4.80;79.39
56721;BME280;53183;47.412;18.884;2022-12-08T10:52:39;98964.28;;;4.78;79.15
56721;BME280;53183;47.412;18.884;2022-12-08T10:55:18;98963.13;;;4.85;78.76
56721;BME280;53183;47.412;18.884;2022-12-08T10:57:45;98956.72;;;4.92;78.89
56721;BME280;53183;47.412;18.884;2022-12-08T11:00:18;98948.97;;;4.89;79.19
56721;BME280;53183;47.412;18.884;2022-12-08T11:05:20;98934.78;;;4.73;79.19
56721;BME280;53183;47.412;18.884;2022-12-08T11:07:53;98929.50;;;4.75;79.51
56721;BME280;53183;47.412;18.884;2022-12-08T11:10:30;98925.25;;;4.72;78.88
56721;BME280;53183;47.412;18.884;2022-12-08T11:13:03;98917.50;;;4.69;79.25
56721;BME280;53183;47.412;18.884;2022-12-08T11:15:37;98906.91;;;4.72;78.98
56721;BME280;53183;47.412;18.884;2022-12-08T11:18:08;98896.91;;;4.60;80.81
56721;BME280;53183;47.412;18.884;2022-12-08T11:20:39;98895.72;;;4.68;79.58
56721;BME280;53183;47.412;18.884;2022-12-08T11:23:24;98891.81;;;4.57;79.26
56721;BME280;53183;47.412;18.884;2022-12-08T11:25:56;98885.22;;;4.46;79.86
56721;BME280;53183;47.412;18.884;2022-12-08T11:28:24;98884.16;;;4.52;81.70
56721;BME280;53183;47.412;18.884;2022-12-08T11:30:56;98884.41;;;4.68;79.44
56721;BME280;53183;47.412;18.884;2022-12-08T11:33:27;98878.19;;;4.70;78.71
56721;BME280;53183;47.412;18.884;2022-12-08T11:35:59;98875.63;;;4.69;79.49
56721;BME280;53183;47.412;18.884;2022-12-08T11:38:28;98874.16;;;4.62;79.16
56721;BME280;53183;47.412;18.884;2022-12-08T11:41:08;98865.53;;;4.60;79.92
56721;BME280;53183;47.412;18.884;2022-12-08T11:44:01;98865.63;;;4.57;77.75
56721;BME280;53183;47.412;18.884;2022-12-08T11:46:53;98858.34;;;4.65;77.60
56721;BME280;53183;47.412;18.884;2022-12-08T11:49:32;98855.50;;;4.71;77.48
56721;BME280;53183;47.412;18.884;2022-12-08T11:54:43;98854.84;;;4.86;76.60
56721;BME280;53183;47.412;18.884;2022-12-08T11:57:13;98851.38;;;4.86;77.04
56721;BME280;53183;47.412;18.884;2022-12-08T11:59:51;98856.63;;;4.86;76.81
56721;BME280;53183;47.412;18.884;2022-12-08T12:02:24;98848.41;;;4.95;76.55
56721;BME280;53183;47.412;18.884;2022-12-08T12:04:58;98841.47;;;4.94;75.79
56721;BME280;53183;47.412;18.884;2022-12-08T12:19:16;98855.66;;;4.66;76.62
56721;BME280;53183;47.412;18.884;2022-12-08T12:21:39;98855.16;;;4.57;77.95
56721;BME280;53183;47.412;18.884;2022-12-08T12:24:31;98861.62;;;4.48;77.63
56721;BME280;53183;47.412;18.884;2022-12-08T12:29:53;98860.91;;;4.44;77.58
56721;BME280;53183;47.412;18.884;2022-12-08T12:32:23;98859.84;;;4.27;nan
56721;BME280;53183;47.412;18.884;2022-12-08T12:34:55;98856.06;;;4.34;78.70
56721;BME280;53183;47.412;18.884;2022-12-08T12:37:40;98851.03;;;4.29;79.66
56721;BME280;53183;47.412;18.884;2022-12-08T12:40:17;98842.13;;;4.33;79.17
56721;BME280;53183;47.412;18.884;2022-12-08T12:45:36;98832.44;;;4.13;79.73
56721;BME280;53183;47.412;18.884;2022-12-08T12:48:20;98827.28;;;4.34;78.89
56721;BME280;53183;47.412;18.884;2022-12-08T12:50:49;98823.09;;;4.30;78.17
56721;BME280;53183;47.412;18.884;2022-12-08T13:03:39;98815.47;;;4.02;80.32
56721;BME280;53183;47.412;18.884;2022-12-08T13:06:09;98812.72;;;4.05;79.85
56721;BME280;53183;47.412;18.884;2022-12-08T13:08:49;98814.50;;;4.04;79.70
56721;BME280;53183;47.412;18.884;2022-12-08T13:11:17;98813.59;;;4.05;79.68
56721;BME280;53183;47.412;18.884;2022-12-08T13:13:55;98808.41;;;4.04;80.23
56721;BME280;53183;47.412;18.884;2022-12-08T13:16:25;98808.50;;;4.02;79.02
56721;BME280;53183;47.412;18.884;2022-12-08T13:18:59;98799.44;;;3.87;79.44
56721;BME280;53183;47.412;18.884;2022-12-08T13:21:32;98798.09;;;3.77;80.40
56721;BME280;53183;47.412;18.884;2022-12-08T13:29:23;98797.19;;;4.02;79.75
56721;BME280;53183;47.412;18.884;2022-12-08T13:34:40;98799.53;;;3.86;80.80
56721;BME280;53183;47.412;18.884;2022-12-08T13:45:03;98809.00;;;3.88;79.88
56721;BME280;53183;47.412;18.884;2022-12-08T13:51:20;98814.69;;;3.76;81.35
56721;BME280;53183;47.412;18.884;2022-12-08T13:54:20;98814.06;;;3.69;83.69
56721;BME280;53183;47.412;18.884;2022-12-08T13:57:24;98812.19;;;3.73;82.48
56721;BME280;53183;47.412;18.884;2022-12-08T13:59:52;98810.94;;;3.60;82.37
56721;BME280;53183;47.412;18.884;2022-12-08T14:02:28;98810.59;;;3.69;83.04
56721;BME280;53183;47.412;18.884;2022-12-08T14:04:56;98808.22;;;3.63;83.11
56721;BME280;53183;47.412;18.884;2022-12-08T14:07:46;98810.94;;;3.60;82.85
56721;BME280;53183;47.412;18.884;2022-12-08T14:10:21;98812.84;;;3.55;82.55
56721;BME280;53183;47.412;18.884;2022-12-08T14:13:01;98806.13;;;3.47;83.72
56721;BME280;53183;47.412;18.884;2022-12-08T14:15:31;98815.47;;;3.55;83.94
56721;BME280;53183;47.412;18.884;2022-12-08T14:18:05;98817.06;;;3.59;82.87
56721;BME280;53183;47.412;18.884;2022-12-08T14:20:34;98813.13;;;3.47;83.34
56721;BME280;53183;47.412;18.884;2022-12-08T14:23:21;98819.63;;;3.35;83.70
56721;BME280;53183;47.412;18.884;2022-12-08T14:25:48;98813.53;;;3.36;84.99
56721;BME280;53183;47.412;18.884;2022-12-08T14:28:15;98813.03;;;3.50;84.13
56721;BME280;53183;47.412;18.884;2022-12-08T14:30:43;98809.50;;;3.51;83.28
56721;BME280;53183;47.412;18.884;2022-12-08T14:33:13;98812.19;;;3.49;83.69
56721;BME280;53183;47.412;18.884;2022-12-08T14:35:41;98810.44;;;3.48;84.41
56721;BME280;53183;47.412;18.884;2022-12-08T14:38:13;98809.56;;;3.49;84.58
56721;BME280;53183;47.412;18.884;2022-12-08T14:40:43;98807.28;;;3.40;84.86
56721;BME280;53183;47.412;18.884;2022-12-08T14:43:17;98815.00;;;3.43;85.99
56721;BME280;53183;47.412;18.884;2022-12-08T14:53:37;98800.91;;;3.47;84.34
56721;BME280;53183;47.412;18.884;2022-12-08T14:58:42;98799.25;;;3.45;84.65